Time;durP1;ratioP1;P1;durP2;ratioP2;P2;SDS_P1;SDS_P2;PMS_P1;PMS_P2;Temp;Humidity;BMP_temperature;BMP_pressure;BME280_temperature;BME280_humidity;BME280_pressure;Samples;Min_cycle;Max_cycle;Signal;HPM_P1;HPM_P2
2022/01/24 00:01:11;;;;;;;7.43;5.13;;;5.80;99.90;;;;;;5106280;28;20035;-46
2022/01/24 00:04:37;;;;;;;6.47;4.70;;;5.80;99.90;;;;;;5106248;28;20038;-47
2022/01/24 00:08:01;;;;;;;7.07;4.75;;;5.80;99.90;;;;;;5105576;28;20508;-46
2022/01/24 00:11:37;;;;;;;6.18;4.03;;;5.80;99.90;;;;;;5108850;28;20028;-46
2022/01/24 00:18:09;;;;;;;9.13;6.13;;;5.80;99.90;;;;;;5087710;28;20070;-47
2022/01/24 00:28:17;;;;;;;9.15;5.03;;;5.80;99.90;;;;;;5106865;28;20050;-46
2022/01/24 00:31:41;;;;;;;7.00;4.63;;;5.80;99.90;;;;;;5099469;28;20521;-48
2022/01/24 00:35:06;;;;;;;8.90;5.95;;;5.80;99.90;;;;;;5086587;28;20067;-47
2022/01/24 00:38:33;;;;;;;7.75;4.68;;;5.80;99.90;;;;;;5102803;28;20043;-47
2022/01/24 00:42:20;;;;;;;9.27;5.80;;;5.80;99.90;;;;;;5089188;28;20645;-50
2022/01/24 00:45:40;;;;;;;7.32;4.07;;;5.80;99.90;;;;;;5097531;28;20043;-49
2022/01/24 00:55:35;;;;;;;10.35;5.22;;;5.80;99.90;;;;;;5105791;28;20054;-46
2022/01/24 00:59:00;;;;;;;15.27;6.25;;;5.80;99.90;;;;;;5104959;28;20040;-46
2022/01/24 01:02:26;;;;;;;8.73;4.97;;;5.80;99.90;;;;;;5107706;28;20498;-48
2022/01/24 01:19:12;;;;;;;11.00;5.03;;;5.80;99.90;;;;;;5089926;28;20043;-46
2022/01/24 01:22:37;;;;;;;10.88;5.95;;;5.80;99.90;;;;;;5089815;28;20433;-47
2022/01/24 01:26:06;;;;;;;13.15;6.05;;;5.80;99.90;;;;;;5102542;28;20067;-47
2022/01/24 01:29:33;;;;;;;11.43;5.30;;;5.80;99.90;;;;;;5106513;28;20035;-46
2022/01/24 01:52:43;;;;;;;12.18;5.72;;;5.80;99.90;;;;;;5089389;28;20085;-46
2022/01/24 01:55:58;;;;;;;11.45;6.18;;;5.80;99.90;;;;;;5098251;28;20028;-46
2022/01/24 01:59:24;;;;;;;9.80;5.18;;;5.80;99.90;;;;;;5103740;28;20039;-47
2022/01/24 02:02:49;;;;;;;12.60;6.72;;;5.80;99.90;;;;;;5107510;28;20502;-48
2022/01/24 02:06:14;;;;;;;8.20;4.65;;;5.80;99.90;;;;;;5104560;28;20051;-46
2022/01/24 02:09:42;;;;;;;10.45;5.35;;;5.80;99.90;;;;;;5108360;28;20067;-49
2022/01/24 02:13:05;;;;;;;11.82;6.13;;;5.80;99.90;;;;;;5100963;28;20259;-46
2022/01/24 02:16:44;;;;;;;9.10;5.07;;;5.90;99.90;;;;;;5101087;28;20032;-46
2022/01/24 02:20:13;;;;;;;10.00;4.85;;;5.80;99.90;;;;;;5107162;28;20055;-46
2022/01/24 02:23:38;;;;;;;10.57;5.40;;;5.80;99.90;;;;;;5102792;28;20506;-48
2022/01/24 02:26:56;;;;;;;10.82;5.85;;;5.80;99.90;;;;;;5098489;28;20057;-48
2022/01/24 02:30:39;;;;;;;11.35;5.57;;;5.80;99.90;;;;;;5107093;28;20035;-47
2022/01/24 02:33:52;;;;;;;11.23;5.65;;;5.80;99.90;;;;;;5104162;28;20039;-46
2022/01/24 02:37:18;;;;;;;10.70;5.10;;;5.80;99.90;;;;;;5101333;28;20071;-47
2022/01/24 02:40:43;;;;;;;9.65;5.10;;;5.90;99.90;;;;;;5103248;28;20065;-50
2022/01/24 02:54:20;;;;;;;13.50;6.65;;;5.80;99.90;;;;;;5088802;28;20042;-46
2022/01/24 02:57:45;;;;;;;11.68;5.20;;;5.80;99.90;;;;;;5101026;28;20698;-47
2022/01/24 03:01:11;;;;;;;12.52;5.82;;;5.90;99.90;;;;;;5106901;28;20415;-46
2022/01/24 03:04:36;;;;;;;15.07;5.95;;;5.90;99.90;;;;;;5103171;28;20056;-50
2022/01/24 03:08:02;;;;;;;11.85;5.47;;;5.90;99.90;;;;;;5104999;28;20055;-47
2022/01/24 03:11:38;;;;;;;14.40;6.68;;;5.90;99.90;;;;;;5108042;28;20132;-47
2022/01/24 03:14:52;;;;;;;16.83;7.57;;;5.80;99.90;;;;;;5106505;28;20043;-48
2022/01/24 03:17:38;;;;;;;16.48;6.75;;;5.70;99.90;;;;;;5104840;28;20415;-46
2022/01/24 03:20:05;;;;;;;16.88;7.97;;;5.70;99.90;;;;;;5108302;28;20069;-54
2022/01/24 03:22:32;;;;;;;14.27;6.60;;;5.70;99.90;;;;;;5092190;28;20028;-53
2022/01/24 03:24:57;;;;;;;16.27;6.97;;;5.70;99.90;;;;;;5109279;28;20059;-52
2022/01/24 03:27:23;;;;;;;20.17;7.85;;;5.70;99.90;;;;;;5110692;28;20439;-51
2022/01/24 03:29:48;;;;;;;19.48;8.35;;;5.70;99.90;;;;;;5112414;28;20032;-53
2022/01/24 03:32:14;;;;;;;16.17;6.75;;;5.60;99.90;;;;;;5098234;28;20376;-53
2022/01/24 03:34:40;;;;;;;19.13;7.65;;;5.70;99.90;;;;;;5111518;28;20072;-50
2022/01/24 03:37:06;;;;;;;21.25;7.70;;;5.70;99.90;;;;;;5110159;28;20043;-48
2022/01/24 03:39:33;;;;;;;15.65;6.45;;;5.70;99.90;;;;;;5112338;28;20031;-55
2022/01/24 03:41:58;;;;;;;21.27;7.82;;;5.70;99.90;;;;;;5109769;28;20072;-53
2022/01/24 03:44:26;;;;;;;13.68;6.32;;;5.70;99.90;;;;;;5108661;28;20027;-51
2022/01/24 03:47:13;;;;;;;15.45;6.28;;;5.70;99.90;;;;;;5109924;28;20035;-51
2022/01/24 03:49:45;;;;;;;14.48;6.53;;;5.70;99.90;;;;;;5092079;28;20039;-54
2022/01/24 03:52:12;;;;;;;13.18;6.10;;;5.80;99.90;;;;;;5101628;28;20036;-52
2022/01/24 03:54:38;;;;;;;12.52;5.95;;;5.80;99.90;;;;;;5111995;28;20335;-53
2022/01/24 03:57:04;;;;;;;9.25;5.57;;;5.80;99.90;;;;;;5109996;28;20034;-50
2022/01/24 03:59:30;;;;;;;8.10;4.85;;;5.80;99.90;;;;;;5111811;28;20042;-53
2022/01/24 04:01:58;;;;;;;9.57;4.65;;;5.70;99.90;;;;;;5109726;28;20406;-52
2022/01/24 04:04:24;;;;;;;7.85;4.15;;;5.80;99.90;;;;;;5093809;28;20104;-51
2022/01/24 04:06:50;;;;;;;9.25;4.85;;;5.70;99.90;;;;;;5109679;28;20040;-52
2022/01/24 04:09:15;;;;;;;7.30;4.25;;;5.80;99.90;;;;;;5111582;28;20016;-54
2022/01/24 04:11:41;;;;;;;8.48;3.95;;;5.80;99.90;;;;;;5109639;28;20019;-54
2022/01/24 04:16:53;;;;;;;8.38;4.00;;;5.80;99.90;;;;;;5097881;28;20042;-50
2022/01/24 04:21:18;;;;;;;6.40;4.05;;;5.70;99.90;;;;;;5097223;28;20075;-52
2022/01/24 04:22:14;;;;;;;7.07;3.45;;;5.70;99.90;;;;;;5097669;28;20029;-50
2022/01/24 04:24:40;;;;;;;5.75;3.50;;;5.70;99.90;;;;;;5111132;28;20140;-52
2022/01/24 04:27:06;;;;;;;8.70;4.85;;;5.70;99.90;;;;;;5109661;28;20051;-55
2022/01/24 04:29:33;;;;;;;6.40;3.65;;;5.70;99.90;;;;;;5111328;28;20391;-53
2022/01/24 04:31:59;;;;;;;5.63;3.42;;;5.80;99.90;;;;;;5109074;28;20043;-52
2022/01/24 04:34:24;;;;;;;6.43;3.92;;;5.80;99.90;;;;;;5111221;28;20024;-51
2022/01/24 04:36:50;;;;;;;6.00;3.53;;;5.80;99.90;;;;;;5108538;28;20057;-49
2022/01/24 04:39:16;;;;;;;6.43;3.45;;;5.80;99.90;;;;;;5111107;28;20415;-51
2022/01/24 04:41:45;;;;;;;6.63;3.83;;;5.80;99.90;;;;;;5109253;28;20031;-53
2022/01/24 04:47:02;;;;;;;8.02;3.35;;;5.90;99.90;;;;;;5098569;28;20046;-55
2022/01/24 04:52:19;;;;;;;6.90;3.63;;;5.80;99.90;;;;;;5100660;28;20047;-52
2022/01/24 04:54:45;;;;;;;9.80;3.95;;;5.90;99.90;;;;;;5090491;28;20036;-49
2022/01/24 04:57:22;;;;;;;9.20;3.50;;;5.90;99.90;;;;;;5108358;28;20030;-51
2022/01/24 04:59:50;;;;;;;8.00;4.13;;;5.90;99.90;;;;;;5090372;28;20030;-53
2022/01/24 05:02:17;;;;;;;9.85;3.97;;;5.90;99.90;;;;;;5108496;28;20111;-53
2022/01/24 05:04:43;;;;;;;5.47;3.58;;;5.90;99.90;;;;;;5110415;28;20491;-51
2022/01/24 05:07:08;;;;;;;6.57;4.18;;;5.90;99.90;;;;;;5095329;28;20032;-50
2022/01/24 05:09:42;;;;;;;7.80;3.78;;;5.90;99.90;;;;;;5109998;28;20031;-55
2022/01/24 05:21:21;;;;;;;6.70;3.88;;;5.90;99.90;;;;;;5099824;28;20031;-53
2022/01/24 05:25:52;;;;;;;10.95;5.30;;;5.90;99.90;;;;;;5088674;28;20145;-49
2022/01/24 05:28:18;;;;;;;11.27;4.90;;;5.90;99.90;;;;;;5110649;28;20049;-51
2022/01/24 05:30:44;;;;;;;11.32;5.18;;;5.90;99.90;;;;;;5110331;28;20465;-53
2022/01/24 05:33:09;;;;;;;8.45;4.68;;;5.90;99.90;;;;;;5108269;28;20371;-54
2022/01/24 05:35:35;;;;;;;11.70;4.90;;;5.90;99.90;;;;;;5110157;28;20031;-48
2022/01/24 05:38:00;;;;;;;13.90;5.65;;;5.90;99.90;;;;;;5089755;28;20024;-50
2022/01/24 05:40:26;;;;;;;12.73;4.95;;;5.90;99.90;;;;;;5109351;28;20039;-51
2022/01/24 05:42:52;;;;;;;9.00;5.15;;;5.90;99.90;;;;;;5104524;28;20085;-52
2022/01/24 05:45:17;;;;;;;11.02;5.60;;;5.90;99.90;;;;;;5109894;28;20035;-49
2022/01/24 05:47:43;;;;;;;11.15;5.70;;;5.90;99.90;;;;;;5107786;28;20224;-50
2022/01/24 05:50:09;;;;;;;8.52;5.05;;;5.90;99.90;;;;;;5109436;28;20031;-55
2022/01/24 05:52:34;;;;;;;13.10;5.88;;;5.80;99.90;;;;;;5092973;28;20056;-52
2022/01/24 05:55:00;;;;;;;9.75;4.28;;;5.90;99.90;;;;;;5109221;28;20036;-55
2022/01/24 05:57:25;;;;;;;11.82;4.95;;;5.90;99.90;;;;;;5107983;28;20066;-54
2022/01/24 05:59:51;;;;;;;9.63;4.60;;;5.90;99.90;;;;;;5109665;28;20475;-49
2022/01/24 06:02:17;;;;;;;10.40;5.57;;;5.90;99.90;;;;;;5095475;28;20040;-51
2022/01/24 06:04:42;;;;;;;9.38;5.15;;;5.80;99.90;;;;;;5108748;28;20047;-53
2022/01/24 06:07:08;;;;;;;8.35;4.47;;;5.80;99.90;;;;;;5107799;28;20027;-53
2022/01/24 06:09:33;;;;;;;9.88;5.05;;;5.90;99.90;;;;;;5109372;28;20307;-49
2022/01/24 06:11:59;;;;;;;9.07;5.18;;;5.90;99.90;;;;;;5107438;28;20376;-51
2022/01/24 06:14:24;;;;;;;8.15;4.85;;;5.90;99.90;;;;;;5109159;28;20035;-51
2022/01/24 06:16:50;;;;;;;8.70;5.13;;;5.90;99.90;;;;;;5107379;28;20035;-53
2022/01/24 06:19:15;;;;;;;11.82;5.28;;;5.90;99.90;;;;;;5101746;28;20047;-54
2022/01/24 06:21:44;;;;;;;10.65;5.82;;;5.90;99.90;;;;;;5092598;28;20027;-50
2022/01/24 06:24:10;;;;;;;9.05;5.20;;;5.90;99.90;;;;;;5107930;28;20047;-56
2022/01/24 06:26:37;;;;;;;9.38;5.72;;;5.90;99.90;;;;;;5106108;28;20153;-54
2022/01/24 06:29:03;;;;;;;9.50;5.38;;;5.90;99.90;;;;;;5069460;28;20036;-55
2022/01/24 06:31:28;;;;;;;10.32;6.03;;;5.90;99.90;;;;;;5088875;28;20494;-54
2022/01/24 06:33:54;;;;;;;10.23;5.65;;;5.90;99.90;;;;;;5086408;28;20032;-53
2022/01/24 06:36:19;;;;;;;8.77;5.75;;;5.90;99.90;;;;;;5106058;28;20077;-53
2022/01/24 06:38:45;;;;;;;9.18;6.07;;;5.90;99.90;;;;;;5106205;28;20051;-52
2022/01/24 06:41:11;;;;;;;10.57;6.15;;;5.90;99.90;;;;;;5108072;28;20235;-52
2022/01/24 06:43:36;;;;;;;9.73;5.20;;;5.90;99.90;;;;;;5085644;28;20028;-52
2022/01/24 06:46:02;;;;;;;11.98;6.25;;;5.90;99.90;;;;;;5107133;28;20396;-54
2022/01/24 06:48:28;;;;;;;13.70;7.45;;;5.90;99.90;;;;;;5105782;28;20076;-53
2022/01/24 06:50:54;;;;;;;13.43;6.47;;;6.00;99.90;;;;;;5107655;28;20027;-48
2022/01/24 06:53:20;;;;;;;11.63;6.93;;;6.00;99.90;;;;;;5091687;28;20024;-50
2022/01/24 06:55:45;;;;;;;12.35;7.15;;;5.90;99.90;;;;;;5107087;28;20034;-51
2022/01/24 06:58:11;;;;;;;16.55;7.78;;;5.90;99.90;;;;;;5106000;28;20110;-55
2022/01/24 07:00:37;;;;;;;10.50;6.55;;;5.90;99.90;;;;;;5110039;28;20608;-52
2022/01/24 07:03:02;;;;;;;10.68;6.97;;;6.00;99.90;;;;;;5098040;28;20024;-50
2022/01/24 07:05:29;;;;;;;12.73;7.43;;;5.90;99.90;;;;;;5111330;28;20085;-50
2022/01/24 07:07:56;;;;;;;11.75;7.07;;;5.90;99.90;;;;;;5109974;28;20406;-51
2022/01/24 07:10:24;;;;;;;13.95;7.25;;;5.90;99.90;;;;;;5111835;28;20032;-49
2022/01/24 07:12:51;;;;;;;9.68;6.30;;;5.90;99.90;;;;;;5109758;28;20031;-53
2022/01/24 07:15:19;;;;;;;12.18;7.30;;;6.00;99.90;;;;;;5111331;28;20228;-52
2022/01/24 07:20:29;;;;;;;12.80;7.47;;;6.00;99.90;;;;;;5102907;28;20175;-53
2022/01/24 07:22:54;;;;;;;13.48;7.90;;;6.00;99.90;;;;;;5109452;28;20563;-49
2022/01/24 07:25:21;;;;;;;12.98;8.00;;;6.00;99.90;;;;;;5111331;28;20244;-55
2022/01/24 07:27:47;;;;;;;15.15;8.15;;;6.00;99.90;;;;;;5109447;28;20035;-54
2022/01/24 07:30:13;;;;;;;10.15;6.97;;;6.00;99.90;;;;;;5111599;28;20057;-47
2022/01/24 07:32:39;;;;;;;12.60;7.22;;;6.00;99.90;;;;;;5110457;28;20499;-51
2022/01/24 07:35:44;;;;;;;12.63;8.15;;;6.00;99.90;;;;;;5110473;28;20399;-47
2022/01/24 07:39:10;;;;;;;12.32;7.40;;;6.10;99.90;;;;;;5094400;28;20051;-47
2022/01/24 07:45:59;;;;;;;11.82;6.60;;;6.10;99.90;;;;;;5110069;28;20043;-48
2022/01/24 07:49:24;;;;;;;13.88;8.00;;;6.10;99.90;;;;;;5104296;28;20365;-46
2022/01/24 07:52:49;;;;;;;15.82;8.27;;;6.10;99.90;;;;;;5105959;28;20031;-48
2022/01/24 07:56:15;;;;;;;14.73;7.97;;;6.10;99.90;;;;;;5109864;28;20475;-49
2022/01/24 07:59:40;;;;;;;12.32;6.88;;;6.20;99.90;;;;;;5108248;28;20061;-49
2022/01/24 08:03:06;;;;;;;14.75;7.65;;;6.20;99.90;;;;;;5105812;28;20032;-49
2022/01/24 08:06:31;;;;;;;12.15;7.45;;;6.20;99.90;;;;;;5106088;28;20048;-49
2022/01/24 08:09:56;;;;;;;10.73;6.13;;;6.20;99.90;;;;;;5103627;28;20462;-49
2022/01/24 08:13:22;;;;;;;17.85;8.10;;;6.20;99.90;;;;;;5104472;28;20046;-49
2022/01/24 08:16:47;;;;;;;13.32;6.90;;;6.30;99.90;;;;;;5109414;28;20513;-47
2022/01/24 08:20:12;;;;;;;11.00;7.55;;;6.30;99.90;;;;;;5103582;28;20048;-50
2022/01/24 08:23:38;;;;;;;11.65;7.57;;;6.30;99.90;;;;;;5103603;28;20456;-48
2022/01/24 08:27:03;;;;;;;14.95;7.72;;;6.30;99.90;;;;;;5111009;28;20046;-48
2022/01/24 08:30:29;;;;;;;19.67;9.55;;;6.30;99.90;;;;;;5107305;28;20027;-52
2022/01/24 08:33:54;;;;;;;14.43;8.20;;;6.30;99.90;;;;;;5105425;28;20028;-49
2022/01/24 08:37:19;;;;;;;16.15;8.23;;;6.50;99.90;;;;;;5090810;28;20372;-52
2022/01/24 08:40:47;;;;;;;10.60;6.47;;;6.50;99.90;;;;;;5106361;28;20035;-49
2022/01/24 08:47:42;;;;;;;12.35;6.82;;;6.60;99.90;;;;;;5094228;28;20039;-52
2022/01/24 08:51:07;;;;;;;11.55;6.03;;;6.70;99.90;;;;;;5107659;28;20070;-48
2022/01/24 08:54:33;;;;;;;14.07;7.30;;;6.70;99.90;;;;;;5105659;28;20028;-49
2022/01/24 08:57:58;;;;;;;12.85;6.35;;;6.70;99.90;;;;;;5090251;28;20540;-47
2022/01/24 09:01:23;;;;;;;8.93;5.53;;;6.80;99.90;;;;;;5104598;28;20036;-50
2022/01/24 09:04:49;;;;;;;11.30;5.03;;;6.80;99.90;;;;;;5102962;28;20035;-52
2022/01/24 09:08:14;;;;;;;6.35;4.15;;;6.90;99.90;;;;;;5107372;28;20363;-48
2022/01/24 09:11:39;;;;;;;6.65;3.72;;;6.90;99.90;;;;;;5090236;28;20024;-47
2022/01/24 09:15:05;;;;;;;5.30;3.65;;;7.00;99.90;;;;;;5102802;28;20510;-48
2022/01/24 09:17:57;;;;;;;3.70;2.83;;;7.20;99.90;;;;;;5106874;28;20047;-47
2022/01/24 09:20:23;;;;;;;4.00;2.65;;;7.30;99.90;;;;;;5091702;28;20044;-49
2022/01/24 09:22:49;;;;;;;4.25;2.88;;;7.40;99.90;;;;;;5110010;28;20020;-48
2022/01/24 09:25:20;;;;;;;3.85;2.58;;;7.40;99.90;;;;;;5088781;28;20483;-47
2022/01/24 09:27:46;;;;;;;5.10;3.42;;;7.40;99.90;;;;;;5089783;28;20249;-53
2022/01/24 09:30:15;;;;;;;4.03;2.70;;;7.40;99.90;;;;;;5107748;28;20515;-48
2022/01/24 09:32:41;;;;;;;5.88;3.40;;;7.40;99.90;;;;;;5110181;28;20040;-49
2022/01/24 09:35:09;;;;;;;5.30;2.97;;;7.40;99.90;;;;;;5089810;28;20111;-49
2022/01/24 09:37:35;;;;;;;3.45;2.20;;;7.40;99.90;;;;;;5109669;28;20024;-50
2022/01/24 09:40:01;;;;;;;3.67;2.55;;;7.40;99.90;;;;;;5107945;28;20043;-49
2022/01/24 09:42:27;;;;;;;4.47;3.17;;;7.50;99.90;;;;;;5105938;28;20031;-48
2022/01/24 09:44:53;;;;;;;4.00;3.05;;;7.50;99.90;;;;;;5107709;28;20427;-48
2022/01/24 09:47:18;;;;;;;4.55;3.45;;;7.50;99.90;;;;;;5109647;28;20032;-52
2022/01/24 09:49:46;;;;;;;4.32;3.25;;;7.60;99.90;;;;;;5093024;28;20182;-47
2022/01/24 09:52:12;;;;;;;6.38;3.83;;;7.70;99.90;;;;;;5109313;28;20110;-48
2022/01/24 09:54:37;;;;;;;4.57;3.22;;;7.70;99.90;;;;;;5107766;28;20107;-52
2022/01/24 09:57:03;;;;;;;4.60;3.25;;;7.70;99.90;;;;;;5109541;28;20478;-49
2022/01/24 09:59:29;;;;;;;5.32;3.22;;;7.80;99.90;;;;;;5094760;28;20032;-49
2022/01/24 10:01:55;;;;;;;6.53;3.88;;;8.00;99.90;;;;;;5108859;28;20056;-52
2022/01/24 10:04:25;;;;;;;4.60;3.35;;;8.20;99.90;;;;;;5107813;28;20024;-48
2022/01/24 10:07:11;;;;;;;5.38;3.33;;;8.50;99.90;;;;;;5109501;28;20036;-50
2022/01/24 10:09:51;;;;;;;4.90;3.47;;;8.70;99.90;;;;;;5101503;28;20077;-50
2022/01/24 10:17:54;;;;;;;5.95;3.78;;;9.00;99.90;;;;;;5089313;28;20043;-48
2022/01/24 10:20:23;;;;;;;6.32;3.65;;;9.00;99.90;;;;;;5106835;28;20047;-48
2022/01/24 10:23:16;;;;;;;5.35;3.45;;;9.00;99.90;;;;;;5109138;28;20070;-49
2022/01/24 10:25:59;;;;;;;6.60;4.00;;;9.10;99.90;;;;;;5109282;28;20099;-49
2022/01/24 10:28:43;;;;;;;8.13;4.15;;;9.10;99.90;;;;;;5090782;28;20459;-49
2022/01/24 10:31:28;;;;;;;5.68;3.83;;;9.20;99.90;;;;;;5109159;28;20114;-48
2022/01/24 10:34:10;;;;;;;7.28;4.35;;;9.40;99.90;;;;;;5106769;28;20086;-51
2022/01/24 10:36:46;;;;;;;7.05;4.63;;;9.50;99.90;;;;;;5088713;28;20119;-48
2022/01/24 10:39:17;;;;;;;6.30;4.13;;;9.60;99.90;;;;;;5106884;28;20032;-50
2022/01/24 10:42:09;;;;;;;6.35;4.00;;;9.70;99.90;;;;;;5104893;28;20119;-53
2022/01/24 10:44:36;;;;;;;5.93;3.83;;;9.60;99.90;;;;;;5106980;28;20114;-51
2022/01/24 10:47:17;;;;;;;7.28;4.28;;;9.60;99.90;;;;;;5108856;28;20035;-49
2022/01/24 10:49:46;;;;;;;6.63;3.67;;;9.50;99.90;;;;;;5106940;28;20028;-51
2022/01/24 10:52:14;;;;;;;6.05;3.80;;;9.50;99.90;;;;;;5108734;28;20511;-52
2022/01/24 10:54:40;;;;;;;5.78;3.90;;;9.50;99.90;;;;;;5092666;28;20442;-50
2022/01/24 10:57:05;;;;;;;4.72;3.20;;;9.30;99.90;;;;;;5108070;28;20032;-53
2022/01/24 10:59:34;;;;;;;4.80;3.25;;;9.20;99.90;;;;;;5106803;28;20222;-50
2022/01/24 11:02:04;;;;;;;5.60;3.78;;;9.00;99.90;;;;;;5108512;28;20407;-49
2022/01/24 11:04:30;;;;;;;5.88;3.38;;;8.90;99.90;;;;;;5094310;28;20028;-49
2022/01/24 11:06:58;;;;;;;6.72;4.53;;;8.80;99.90;;;;;;5108108;28;20024;-50
2022/01/24 11:09:30;;;;;;;6.32;4.03;;;8.80;99.90;;;;;;5106924;28;20028;-49
2022/01/24 11:12:09;;;;;;;6.68;4.03;;;8.70;99.90;;;;;;5108628;28;20032;-51
2022/01/24 11:14:37;;;;;;;5.38;3.60;;;8.60;99.90;;;;;;5100092;28;20036;-51
2022/01/24 11:17:05;;;;;;;6.93;4.10;;;8.50;99.90;;;;;;5108511;28;20095;-51
2022/01/24 11:19:38;;;;;;;6.78;3.78;;;8.40;99.90;;;;;;5093750;28;20048;-51
2022/01/24 11:22:05;;;;;;;5.47;3.85;;;8.30;99.90;;;;;;5088363;28;20213;-53
2022/01/24 11:24:43;;;;;;;5.05;3.65;;;8.10;99.90;;;;;;5106414;28;20015;-51
2022/01/24 11:27:09;;;;;;;5.70;4.13;;;8.00;99.90;;;;;;5088326;28;20024;-48
2022/01/24 11:29:35;;;;;;;7.20;3.63;;;7.90;99.90;;;;;;5106093;28;20049;-50
2022/01/24 11:32:42;;;;;;;9.18;4.70;;;7.90;99.90;;;;;;5108410;28;20038;-50
2022/01/24 11:35:08;;;;;;;8.20;4.80;;;7.80;99.90;;;;;;5104525;28;20028;-49
2022/01/24 11:37:41;;;;;;;6.15;4.13;;;7.80;99.90;;;;;;5108360;28;20039;-50
2022/01/24 11:40:19;;;;;;;8.95;5.05;;;7.70;99.90;;;;;;5104304;28;20054;-50
2022/01/24 11:42:47;;;;;;;8.05;4.53;;;7.60;99.90;;;;;;5090883;28;20380;-49
2022/01/24 11:45:17;;;;;;;6.65;4.25;;;7.60;99.90;;;;;;5087666;28;20028;-48
2022/01/24 11:47:45;;;;;;;6.28;3.97;;;7.50;99.90;;;;;;5091840;28;20123;-52
2022/01/24 11:50:33;;;;;;;6.20;4.30;;;7.40;99.90;;;;;;5109808;28;20102;-49
2022/01/24 11:52:59;;;;;;;6.47;3.90;;;7.40;99.90;;;;;;5109949;28;20505;-49
2022/01/24 11:55:38;;;;;;;6.20;3.80;;;7.30;99.90;;;;;;5112018;28;20035;-52
2022/01/24 11:58:07;;;;;;;12.38;5.22;;;7.30;99.90;;;;;;5090446;28;20123;-48
2022/01/24 12:00:39;;;;;;;9.10;4.45;;;7.20;99.90;;;;;;5112020;28;20102;-50
2022/01/24 12:03:26;;;;;;;6.13;3.67;;;7.20;99.90;;;;;;5090533;28;20051;-50
2022/01/24 12:05:53;;;;;;;4.20;2.67;;;7.20;99.90;;;;;;5111835;28;20059;-51
2022/01/24 12:08:41;;;;;;;5.60;2.88;;;7.20;99.90;;;;;;5109688;28;20578;-49
2022/01/24 12:11:23;;;;;;;3.95;2.38;;;7.30;99.90;;;;;;5111692;28;20031;-50
2022/01/24 12:13:56;;;;;;;3.83;2.53;;;7.30;99.90;;;;;;5109608;28;20026;-51
2022/01/24 12:16:36;;;;;;;3.88;2.72;;;7.30;99.90;;;;;;5111924;28;20043;-50
2022/01/24 12:19:04;;;;;;;3.28;2.08;;;7.30;99.90;;;;;;5097989;28;20518;-51
2022/01/24 12:21:32;;;;;;;3.45;2.33;;;7.30;99.90;;;;;;5111374;28;20039;-49
2022/01/24 12:23:59;;;;;;;3.38;2.22;;;7.40;99.90;;;;;;5109666;28;20394;-52
2022/01/24 12:26:27;;;;;;;2.95;2.20;;;7.40;99.90;;;;;;5111348;28;20032;-51
2022/01/24 12:29:03;;;;;;;2.88;2.20;;;7.40;99.90;;;;;;5109223;28;20028;-52
2022/01/24 12:31:30;;;;;;;2.75;1.80;;;7.40;99.90;;;;;;5111342;28;20031;-49
2022/01/24 12:34:16;;;;;;;2.88;2.30;;;7.30;99.90;;;;;;5109062;28;20411;-50
2022/01/24 12:36:49;;;;;;;2.78;2.00;;;7.20;99.90;;;;;;5076534;28;20088;-48
2022/01/24 12:39:18;;;;;;;2.25;1.85;;;7.20;99.90;;;;;;5099811;28;20046;-51
2022/01/24 12:41:48;;;;;;;2.55;1.50;;;7.10;99.90;;;;;;5107394;28;20030;-49
2022/01/24 12:47:26;;;;;;;2.83;1.70;;;6.90;99.90;;;;;;5090820;28;20046;-51
2022/01/24 12:49:52;;;;;;;3.65;2.00;;;6.90;99.90;;;;;;5104650;28;20039;-48
2022/01/24 12:52:21;;;;;;;3.38;2.22;;;6.80;99.90;;;;;;5110553;28;20059;-52
2022/01/24 12:54:50;;;;;;;3.28;2.00;;;6.80;99.90;;;;;;5093719;28;20028;-52
2022/01/24 12:57:20;;;;;;;1.92;1.73;;;6.80;99.90;;;;;;5107755;28;20080;-48
2022/01/24 13:00:44;;;;;;;3.22;2.03;;;6.70;99.90;;;;;;5110908;28;20087;-50
2022/01/24 13:04:07;;;;;;;2.80;2.08;;;6.70;99.90;;;;;;5104843;28;20027;-51
2022/01/24 13:07:31;;;;;;;3.35;2.08;;;6.70;99.90;;;;;;5102358;28;20031;-50
2022/01/24 13:10:56;;;;;;;5.80;2.75;;;6.70;99.90;;;;;;5090328;28;20332;-52
2022/01/24 13:14:03;;;;;;;5.50;2.90;;;6.60;99.90;;;;;;5102056;28;20503;-48
2022/01/24 13:21:07;;;;;;;4.20;2.80;;;6.60;99.90;;;;;;5104178;28;20050;-50
2022/01/24 13:24:00;;;;;;;;;;;6.50;99.90;;;;;;5103995;28;20039;-51
2022/01/24 13:27:24;;;;;;;4.05;2.47;;;6.50;99.90;;;;;;5109913;28;19912;-48
2022/01/24 13:30:30;;;;;;;4.00;2.40;;;6.50;99.90;;;;;;5103715;28;20455;-48
2022/01/24 13:33:57;;;;;;;4.18;2.70;;;6.50;99.90;;;;;;5092307;28;20040;-49
2022/01/24 13:37:26;;;;;;;4.70;2.90;;;6.40;99.90;;;;;;5108601;28;20121;-51
2022/01/24 13:41:04;;;;;;;6.18;2.72;;;6.40;99.90;;;;;;5105140;28;20488;-49
2022/01/24 13:44:32;;;;;;;4.60;2.10;;;6.40;99.90;;;;;;5097299;28;20081;-48
2022/01/24 13:47:58;;;;;;;4.03;2.95;;;6.40;99.90;;;;;;5107672;28;20039;-51
2022/01/24 13:51:43;;;;;;;4.18;2.92;;;6.40;99.90;;;;;;5103137;28;20092;-49
2022/01/24 13:55:07;;;;;;;5.90;3.45;;;6.30;99.90;;;;;;5103600;28;20028;-51
2022/01/24 13:58:32;;;;;;;5.70;3.58;;;6.20;99.90;;;;;;5088879;28;20040;-55
2022/01/24 14:01:58;;;;;;;6.10;3.38;;;6.20;99.90;;;;;;5103339;28;20039;-55
2022/01/24 14:05:23;;;;;;;6.63;3.92;;;6.20;99.90;;;;;;5101037;28;20070;-53
2022/01/24 14:08:51;;;;;;;6.18;3.95;;;6.20;99.90;;;;;;5103116;28;20583;-53
2022/01/24 14:12:00;;;;;;;;;;;6.10;99.90;;;;;;5103599;28;20047;-56
2022/01/24 14:15:47;;;;;;;5.82;3.25;;;6.10;99.90;;;;;;5095413;28;19912;-55
2022/01/24 14:19:03;;;;;;;4.68;3.03;;;6.10;99.90;;;;;;5101567;28;20032;-58
2022/01/24 14:22:40;;;;;;;6.30;3.28;;;6.10;99.90;;;;;;5106476;28;20085;-56
2022/01/24 14:26:06;;;;;;;8.82;4.25;;;6.00;99.90;;;;;;5104817;28;20061;-52
2022/01/24 14:29:43;;;;;;;5.40;3.35;;;6.10;99.90;;;;;;5100658;28;20043;-53
2022/01/24 14:33:21;;;;;;;5.70;3.40;;;6.10;99.90;;;;;;5088065;28;20160;-51
2022/01/24 14:36:15;;;;;;;6.32;3.60;;;6.10;99.90;;;;;;5088354;28;20047;-49
2022/01/24 14:38:46;;;;;;;6.22;3.78;;;6.00;99.90;;;;;;5101110;28;20110;-52
2022/01/24 14:41:19;;;;;;;5.50;3.70;;;6.00;99.90;;;;;;5098782;28;20035;-50
2022/01/24 14:46:34;;;;;;;6.80;4.00;;;6.00;99.90;;;;;;5097940;28;20733;-49
2022/01/24 14:49:04;;;;;;;7.07;4.20;;;5.90;99.90;;;;;;5089642;28;20047;-51
2022/01/24 14:51:32;;;;;;;6.13;4.35;;;5.90;99.90;;;;;;5094576;28;20067;-47
2022/01/24 14:54:00;;;;;;;9.98;4.70;;;5.90;99.90;;;;;;5107729;28;20050;-49
2022/01/24 14:56:27;;;;;;;7.35;4.53;;;5.80;99.90;;;;;;5105744;28;20074;-52
2022/01/24 14:58:53;;;;;;;7.45;4.60;;;5.80;99.90;;;;;;5107220;28;20023;-52
2022/01/24 15:01:20;;;;;;;6.88;4.57;;;5.80;99.90;;;;;;5105402;28;20100;-50
2022/01/24 15:03:46;;;;;;;6.45;4.22;;;5.80;99.90;;;;;;5105034;28;20684;-47
2022/01/24 15:06:13;;;;;;;8.93;4.40;;;5.80;99.90;;;;;;5104763;28;20506;-48
2022/01/24 15:08:41;;;;;;;6.93;4.40;;;5.70;99.90;;;;;;5106740;28;20035;-49
2022/01/24 15:11:11;;;;;;;7.80;4.28;;;5.80;99.90;;;;;;5104762;28;20122;-51
2022/01/24 15:13:43;;;;;;;10.35;5.90;;;5.70;99.90;;;;;;5105457;28;20032;-49
2022/01/24 15:27:41;;;;;;;11.93;6.80;;;5.60;99.90;;;;;;5107914;28;20065;-54
2022/01/24 15:30:08;;;;;;;10.13;6.38;;;5.60;99.90;;;;;;5112079;28;20027;-53
2022/01/24 15:32:34;;;;;;;9.45;5.40;;;5.60;99.90;;;;;;5110051;28;20118;-54
2022/01/24 15:35:00;;;;;;;8.45;5.53;;;5.50;99.90;;;;;;5111667;28;20559;-55
2022/01/24 15:37:25;;;;;;;8.32;5.60;;;5.50;99.90;;;;;;5108656;28;20115;-55
2022/01/24 15:39:53;;;;;;;8.35;5.65;;;5.50;99.90;;;;;;5111303;28;20032;-53
2022/01/24 15:43:24;;;;;;;9.63;5.70;;;5.50;99.90;;;;;;5109601;28;20024;-53
2022/01/24 15:49:44;;;;;;;19.63;7.43;;;5.40;99.90;;;;;;5107357;28;20184;-51
2022/01/24 15:53:10;;;;;;;14.40;6.80;;;5.40;99.90;;;;;;5094719;28;20023;-52
2022/01/24 15:59:40;;;;;;;9.15;5.50;;;5.30;99.90;;;;;;5107325;28;20030;-57
2022/01/24 16:03:06;;;;;;;9.52;5.65;;;5.30;99.90;;;;;;5103174;28;20114;-56
2022/01/24 16:06:31;;;;;;;10.45;5.50;;;5.30;99.90;;;;;;5104225;28;20035;-52
2022/01/24 16:09:56;;;;;;;10.07;5.78;;;5.30;99.90;;;;;;5104949;28;20030;-57
2022/01/24 16:13:23;;;;;;;6.93;4.57;;;5.30;99.90;;;;;;5108810;28;20538;-56
2022/01/24 16:16:48;;;;;;;7.28;4.13;;;5.20;99.90;;;;;;5090336;28;20047;-56
2022/01/24 16:20:28;;;;;;;9.52;5.43;;;5.20;99.90;;;;;;5104254;28;20204;-57
2022/01/24 16:24:04;;;;;;;23.13;11.00;;;5.20;99.90;;;;;;5106443;28;20028;-54
2022/01/24 16:27:12;;;;;;;15.40;8.20;;;5.20;99.90;;;;;;5099596;28;20119;-54
2022/01/24 16:30:37;;;;;;;17.83;10.02;;;5.20;99.90;;;;;;5090117;28;20436;-53
2022/01/24 16:34:05;;;;;;;13.85;7.65;;;5.20;99.90;;;;;;5101824;28;20031;-54
2022/01/24 16:37:34;;;;;;;11.68;6.72;;;5.10;99.90;;;;;;5103944;28;20072;-55
2022/01/24 16:47:28;;;;;;;9.75;5.75;;;5.20;99.90;;;;;;5089618;28;20067;-59
2022/01/24 16:50:54;;;;;;;11.57;6.15;;;5.20;99.90;;;;;;5104439;28;20475;-53
2022/01/24 16:54:21;;;;;;;9.90;5.85;;;5.20;99.90;;;;;;5102804;28;20042;-51
2022/01/24 16:57:44;;;;;;;13.70;7.05;;;5.10;99.90;;;;;;5105697;28;20039;-50